Time;durP1;ratioP1;P1;durP2;ratioP2;P2;SDS_P1;SDS_P2;PMS_P1;PMS_P2;Temp;Humidity;BMP_temperature;BMP_pressure;BME280_temperature;BME280_humidity;BME280_pressure;Samples;Min_cycle;Max_cycle;Signal;HPM_P1;HPM_P2
2022/01/12 00:01:17;;;;;;;16.83;10.60;;;;;;;2.09;100.00;101007.53;5112232;28;20203;-82
2022/01/12 00:03:46;;;;;;;17.67;10.57;;;;;;;1.91;100.00;101008.41;5114565;28;20214;-83
2022/01/12 00:06:17;;;;;;;14.70;9.83;;;;;;;1.85;100.00;101015.38;5112993;28;20251;-82
2022/01/12 00:08:46;;;;;;;15.40;9.87;;;;;;;1.82;100.00;101023.19;5079084;28;20228;-83
2022/01/12 00:11:17;;;;;;;15.33;10.00;;;;;;;1.78;100.00;101013.63;5110708;28;20195;-82
2022/01/12 00:13:45;;;;;;;14.70;10.57;;;;;;;1.87;100.00;101016.25;5109648;28;20206;-82
2022/01/12 00:16:15;;;;;;;18.87;10.87;;;;;;;1.83;100.00;101015.34;5110706;28;20202;-82
2022/01/12 00:18:45;;;;;;;17.43;10.67;;;;;;;1.77;100.00;101019.72;5113339;28;20189;-83
2022/01/12 00:21:13;;;;;;;17.07;10.77;;;;;;;1.70;100.00;101027.53;5110704;28;20648;-82
2022/01/12 00:23:41;;;;;;;16.93;10.90;;;;;;;1.65;100.00;101023.19;5064600;28;20210;-82
2022/01/12 00:26:13;;;;;;;16.10;9.93;;;;;;;1.54;100.00;101033.56;5113115;28;20198;-82
2022/01/12 00:34:27;;;;;;;17.43;10.40;;;;;;;1.30;100.00;101010.88;5116335;28;20191;-83
2022/01/12 00:36:55;;;;;;;15.80;10.77;;;;;;;1.29;100.00;101016.09;5106436;28;20195;-83
2022/01/12 00:39:24;;;;;;;16.67;10.57;;;;;;;1.34;100.00;101019.56;5111471;28;20191;-83
2022/01/12 00:41:53;;;;;;;17.17;11.37;;;;;;;1.24;100.00;101021.28;5114172;28;20187;-82
2022/01/12 00:44:31;;;;;;;17.67;10.60;;;;;;;1.28;100.00;101019.56;5111718;28;20219;-84
2022/01/12 00:47:00;;;;;;;20.17;11.33;;;;;;;1.22;100.00;101009.09;5116530;28;20202;-83
2022/01/12 00:49:28;;;;;;;17.57;10.63;;;;;;;1.19;100.00;101009.09;5062099;28;20195;-83
2022/01/12 00:51:56;;;;;;;15.73;10.60;;;;;;;1.19;100.00;101003.88;5110381;28;20183;-83
2022/01/12 00:54:26;;;;;;;20.40;12.03;;;;;;;1.21;100.00;101005.63;5113544;28;20193;-83
2022/01/12 00:56:54;;;;;;;23.87;12.27;;;;;;;1.06;100.00;101002.94;5113958;28;20240;-83
2022/01/12 00:59:24;;;;;;;36.73;13.37;;;;;;;1.02;100.00;101017.72;5116516;28;20230;-83
2022/01/12 01:01:56;;;;;;;34.67;14.17;;;;;;;0.92;100.00;101015.94;5114146;28;20206;-84
2022/01/12 01:04:26;;;;;;;44.53;14.47;;;;;;;0.92;100.00;101015.94;5112241;28;20211;-84
2022/01/12 01:06:56;;;;;;;40.20;13.53;;;;;;;0.92;100.00;101021.16;5111563;28;20203;-84
2022/01/12 01:09:24;;;;;;;22.07;12.50;;;;;;;0.98;100.00;101017.72;5113119;28;20191;-83
2022/01/12 01:11:52;;;;;;;48.93;14.03;;;;;;;0.88;100.00;101021.13;5113680;28;20203;-83
2022/01/12 01:14:33;;;;;;;61.87;14.27;;;;;;;0.89;100.00;101025.50;5104591;28;20191;-83
2022/01/12 01:25:23;;;;;;;51.93;14.13;;;;;;;0.79;100.00;101027.16;5112573;28;20224;-83
2022/01/12 01:25:32;;;;;;;43.40;13.47;;;;;;;0.71;100.00;101065.38;5112597;28;20203;-83
2022/01/12 01:28:00;;;;;;;76.83;14.90;;;;;;;0.71;100.00;101065.38;5110894;28;20195;-83
2022/01/12 01:30:29;;;;;;;45.80;15.07;;;;;;;0.62;100.00;101058.34;5107876;28;20229;-84
2022/01/12 01:33:05;;;;;;;51.47;13.60;;;;;;;0.40;100.00;101059.06;5063860;28;20240;-83
2022/01/12 01:35:34;;;;;;;39.17;13.27;;;;;;;0.42;100.00;101049.50;5113656;28;20616;-84
2022/01/12 01:38:03;;;;;;;31.07;11.70;;;;;;;0.49;100.00;101056.53;5114445;28;20646;-83
2022/01/12 01:40:33;;;;;;;55.03;13.73;;;;;;;0.50;100.00;101058.28;5115649;28;20240;-84
2022/01/12 01:43:15;;;;;;;55.33;14.37;;;;;;;0.38;100.00;101061.63;5111668;28;20256;-84
2022/01/12 01:54:03;;;;;;;52.90;14.50;;;;;;;0.45;100.00;101086.88;5115465;28;20194;-83
2022/01/12 01:56:33;;;;;;;56.30;15.13;;;;;;;0.39;100.00;101076.44;5063824;28;20198;-84
2022/01/12 01:59:01;;;;;;;84.23;15.83;;;;;;;0.45;100.00;101065.16;5108668;28;20206;-84
2022/01/12 02:01:31;;;;;;;39.20;14.50;;;;;;;0.41;100.00;101064.28;5112238;28;20249;-84
2022/01/12 02:04:02;;;;;;;59.43;15.93;;;;;;;0.48;100.00;101066.09;5108479;28;20222;-83
2022/01/12 02:06:31;;;;;;;55.80;15.00;;;;;;;0.47;100.00;101063.44;5109779;28;20221;-84
2022/01/12 02:08:59;;;;;;;38.97;12.80;;;;;;;0.54;100.00;101062.63;5111445;28;20209;-85
2022/01/12 02:11:28;;;;;;;41.90;13.97;;;;;;;0.39;100.00;101054.72;5108851;28;20183;-84
2022/01/12 02:13:57;;;;;;;104.17;16.67;;;;;;;0.39;100.00;101054.72;5115145;28;20202;-83
2022/01/12 02:16:31;;;;;;;105.40;18.50;;;;;;;0.24;100.00;101052.84;5112292;28;20187;-84
2022/01/12 02:19:14;;;;;;;95.90;16.90;;;;;;;0.26;100.00;101057.19;5110875;28;20187;-84
2022/01/12 02:41:07;;;;;;;37.67;11.07;;;;;;;-0.10;100.00;101088.97;5114566;28;20198;-84
2022/01/12 02:50:37;;;;;;;48.63;11.13;;;;;;;-0.10;100.00;101088.97;5111872;28;20252;-84
2022/01/12 02:54:54;;;;;;;40.77;11.47;;;;;;;-0.04;100.00;101064.72;5017966;28;20194;-84
2022/01/12 02:57:23;;;;;;;45.97;11.03;;;;;;;-0.15;100.00;101067.22;5012421;28;20210;-84
2022/01/12 03:00:04;;;;;;;31.03;10.47;;;;;;;-0.13;100.00;101067.25;5013991;28;20678;-84
2022/01/12 03:02:36;;;;;;;25.93;9.47;;;;;;;-0.25;100.00;101073.22;5015676;28;20212;-84
2022/01/12 03:07:49;;;;;;;30.03;9.70;;;;;;;-0.14;100.00;101091.53;5010444;28;20270;-83
2022/01/12 03:10:19;;;;;;;65.90;11.63;;;;;;;-0.14;100.00;101091.53;5019749;28;20232;-84
2022/01/12 03:12:47;;;;;;;46.90;11.03;;;;;;;-0.32;100.00;101100.03;5075594;28;20198;-85
2022/01/12 03:15:16;;;;;;;84.80;13.10;;;;;;;-0.36;100.00;101087.84;5111393;28;20198;-85
2022/01/12 03:17:44;;;;;;;49.77;11.57;;;;;;;-0.41;100.00;101092.09;5106371;28;20199;-85
2022/01/12 03:20:13;;;;;;;45.37;11.03;;;;;;;-0.36;100.00;101088.72;5114118;28;20274;-84
2022/01/12 03:22:41;;;;;;;40.97;11.57;;;;;;;-0.32;100.00;101097.41;5107998;28;20197;-84
2022/01/12 03:25:13;;;;;;;27.47;9.83;;;;;;;-0.32;100.00;101108.69;5109806;28;20249;-84
2022/01/12 03:27:42;;;;;;;21.50;10.90;;;;;;;-0.38;100.00;101106.03;5111474;28;20198;-85
2022/01/12 03:30:12;;;;;;;27.40;11.03;;;;;;;-0.38;100.00;101106.03;5110571;28;20272;-85
2022/01/12 03:32:45;;;;;;;24.47;10.47;;;;;;;-0.35;100.00;101092.19;5072165;28;20199;-85
2022/01/12 03:35:25;;;;;;;36.30;11.23;;;;;;;-0.44;100.00;101092.94;5103374;28;20222;-85
2022/01/12 03:38:19;;;;;;;17.50;9.80;;;;;;;-0.44;100.00;101092.94;5105709;28;20187;-85
2022/01/12 03:40:44;;;;;;;21.93;9.93;;;;;;;-0.33;100.00;101104.34;5109406;28;20203;-84
2022/01/12 03:43:14;;;;;;;26.07;10.73;;;;;;;-0.13;100.00;101109.78;5115042;28;20260;-85
2022/01/12 03:45:43;;;;;;;22.70;9.40;;;;;;;-0.26;100.00;101107.91;5113741;28;20229;-85
2022/01/12 03:48:12;;;;;;;14.63;9.90;;;;;;;-0.28;100.00;101104.44;5109414;28;20205;-85
2022/01/12 03:50:40;;;;;;;19.37;10.27;;;;;;;-0.25;100.00;101114.00;5015262;28;20201;-85
2022/01/12 03:53:08;;;;;;;27.37;10.70;;;;;;;-0.30;100.00;101113.91;5006588;28;20198;-85
2022/01/12 03:55:38;;;;;;;17.33;10.17;;;;;;;-0.28;100.00;101109.63;5010060;28;20195;-86
2022/01/12 03:58:10;;;;;;;15.90;10.80;;;;;;;-0.23;100.00;101115.75;5004976;28;20276;-84
2022/01/12 04:00:40;;;;;;;15.27;10.53;;;;;;;-0.23;100.00;101115.75;5010667;28;20198;-85
2022/01/12 04:03:09;;;;;;;17.87;10.53;;;;;;;-0.18;100.00;101108.00;5012738;28;20244;-85
2022/01/12 04:08:18;;;;;;;17.57;10.83;;;;;;;-0.23;100.00;101107.94;5009288;28;20307;-85
2022/01/12 04:08:29;;;;;;;13.47;9.83;;;;;;;-0.05;100.00;101094.25;5051261;28;20187;-84
2022/01/12 04:11:00;;;;;;;16.50;10.70;;;;;;;-0.10;100.00;101088.97;5114850;28;20195;-86
2022/01/12 04:13:30;;;;;;;18.33;10.90;;;;;;;-0.03;100.00;101087.31;5113146;28;20199;-85
2022/01/12 04:16:02;;;;;;;15.50;10.87;;;;;;;-0.08;100.00;101073.38;5109325;28;20208;-84
2022/01/12 04:18:31;;;;;;;14.80;10.37;;;;;;;-0.10;100.00;101069.88;5117451;28;20194;-85
2022/01/12 04:21:02;;;;;;;15.17;10.57;;;;;;;-0.23;100.00;101061.06;5113675;28;20222;-85
2022/01/12 04:23:31;;;;;;;14.53;10.07;;;;;;;0.00;100.00;101069.13;5116947;28;20202;-85
2022/01/12 04:26:01;;;;;;;15.77;10.80;;;;;;;0.03;100.00;101082.19;5108657;28;20215;-84
2022/01/12 04:28:30;;;;;;;17.30;10.40;;;;;;;0.05;100.00;101087.41;5109968;28;20683;-85
2022/01/12 04:31:01;;;;;;;16.17;11.00;;;;;;;0.18;100.00;101081.44;5114101;28;20235;-85
2022/01/12 04:33:30;;;;;;;15.40;10.53;;;;;;;0.18;100.00;101081.44;5105822;28;20203;-84
2022/01/12 04:35:59;;;;;;;18.47;10.93;;;;;;;0.15;100.00;101081.41;5114357;28;20191;-85
2022/01/12 04:38:33;;;;;;;16.03;10.93;;;;;;;0.23;100.00;101084.97;5109992;28;20187;-84
2022/01/12 04:41:02;;;;;;;15.87;11.03;;;;;;;0.07;100.00;101090.88;5108582;28;20199;-84
2022/01/12 04:43:31;;;;;;;16.73;10.97;;;;;;;0.09;100.00;101099.56;5109904;28;20203;-84
2022/01/12 04:51:38;;;;;;;18.53;11.70;;;;;;;0.05;100.00;101092.59;5093563;28;20199;-84
2022/01/12 04:54:07;;;;;;;17.07;11.27;;;;;;;-0.03;100.00;101090.78;5105655;28;20203;-85
2022/01/12 04:56:36;;;;;;;17.87;11.27;;;;;;;0.19;100.00;101099.72;5112612;28;20195;-84
2022/01/12 04:59:06;;;;;;;16.90;10.93;;;;;;;0.14;100.00;101098.78;5106192;28;20195;-85
2022/01/12 05:01:51;;;;;;;17.50;11.90;;;;;;;0.14;100.00;101098.78;5051211;28;20196;-85
2022/01/12 05:07:23;;;;;;;17.97;12.00;;;;;;;0.20;100.00;101080.59;4971425;28;20200;-84
2022/01/12 05:12:47;;;;;;;21.33;11.77;;;;;;;0.14;100.00;101085.75;4975031;28;20210;-84
2022/01/12 05:12:53;;;;;;;19.97;11.73;;;;;;;0.25;100.00;101093.66;4974801;28;20717;-85
2022/01/12 05:15:37;;;;;;;19.80;12.63;;;;;;;0.23;100.00;101096.25;4971250;28;20207;-84
2022/01/12 05:18:10;;;;;;;18.33;11.43;;;;;;;0.33;100.00;101097.22;4971795;28;20207;-84
2022/01/12 05:20:41;;;;;;;18.60;11.20;;;;;;;0.33;100.00;101097.22;4967428;28;20206;-84
2022/01/12 05:23:09;;;;;;;19.93;11.60;;;;;;;0.34;100.00;101092.88;5040240;28;20243;-81
2022/01/12 05:25:38;;;;;;;17.03;11.37;;;;;;;0.38;100.00;101092.91;5091929;28;20222;-85
2022/01/12 05:28:07;;;;;;;16.90;10.97;;;;;;;0.31;100.00;101091.13;5069122;28;20199;-85
2022/01/12 05:30:35;;;;;;;17.83;10.70;;;;;;;0.28;100.00;101091.06;5106408;28;20701;-85
2022/01/12 05:33:11;;;;;;;15.53;9.93;;;;;;;0.21;100.00;101089.28;5116252;28;20191;-84
2022/01/12 05:35:42;;;;;;;18.10;10.37;;;;;;;0.21;100.00;101089.28;5117585;28;20191;-84
2022/01/12 05:38:13;;;;;;;14.60;9.40;;;;;;;0.39;100.00;101099.03;5113648;28;20195;-84
2022/01/12 05:40:46;;;;;;;14.80;9.73;;;;;;;0.42;100.00;101093.81;5110554;28;20203;-85
2022/01/12 05:43:16;;;;;;;14.27;10.57;;;;;;;0.47;100.00;101090.38;5106956;28;20198;-85
2022/01/12 05:45:45;;;;;;;15.40;9.90;;;;;;;0.45;100.00;101093.84;5103019;28;20254;-84
2022/01/12 05:51:02;;;;;;;14.70;9.97;;;;;;;;;;5116918;28;20195;-84
2022/01/12 05:53:30;;;;;;;16.77;10.47;;;;;;;0.16;100.00;101093.56;5115640;28;20231;-83
2022/01/12 05:55:58;;;;;;;15.47;9.27;;;;;;;0.16;100.00;101093.56;5114662;28;20224;-85
2022/01/12 05:58:27;;;;;;;18.47;10.80;;;;;;;0.07;100.00;101091.75;5121850;28;20198;-85
2022/01/12 06:00:56;;;;;;;17.53;9.73;;;;;;;-0.03;100.00;101092.53;5115326;28;20207;-83
2022/01/12 06:03:29;;;;;;;15.73;9.27;;;;;;;0.04;100.00;101094.34;5115970;28;20233;-83
2022/01/12 06:05:57;;;;;;;17.03;9.03;;;;;;;-0.09;100.00;101105.50;5113273;28;20245;-85
2022/01/12 06:08:28;;;;;;;16.47;9.60;;;;;;;-0.09;100.00;101105.50;5110256;28;20225;-85
2022/01/12 06:10:58;;;;;;;16.57;9.80;;;;;;;-0.31;100.00;101092.22;5027457;28;20201;-85
2022/01/12 06:13:26;;;;;;;16.00;9.33;;;;;;;-0.04;100.00;101098.59;5033790;28;20200;-85
2022/01/12 06:15:54;;;;;;;17.40;9.37;;;;;;;0.09;100.00;101103.06;5028806;28;20651;-85
2022/01/12 06:18:26;;;;;;;15.17;9.73;;;;;;;0.24;100.00;101111.03;5027943;28;20202;-85
2022/01/12 06:20:55;;;;;;;15.63;9.10;;;;;;;0.30;100.00;101112.84;5020570;28;20205;-85
2022/01/12 06:23:23;;;;;;;13.83;9.13;;;;;;;0.40;100.00;101119.88;5030100;28;20197;-85
2022/01/12 06:25:52;;;;;;;16.73;9.33;;;;;;;0.37;100.00;101132.88;5030335;28;20222;-86
2022/01/12 06:28:35;;;;;;;13.20;8.87;;;;;;;0.46;100.00;101139.91;5045234;28;20654;-86
2022/01/12 06:31:13;;;;;;;17.67;9.20;;;;;;;0.27;100.00;101131.91;5112889;28;20223;-85
2022/01/12 06:33:44;;;;;;;14.83;8.87;;;;;;;0.33;100.00;101140.66;5115435;28;20187;-85
2022/01/12 06:36:14;;;;;;;14.43;8.23;;;;;;;0.29;100.00;101142.38;5122099;28;20249;-84
2022/01/12 06:38:43;;;;;;;14.60;9.20;;;;;;;0.09;100.00;101136.91;5118659;28;20198;-85
2022/01/12 06:41:12;;;;;;;11.87;8.17;;;;;;;0.02;100.00;101140.34;5107755;28;20244;-84
2022/01/12 06:43:43;;;;;;;15.33;9.27;;;;;;;-0.02;100.00;101136.81;5109552;28;20198;-84
2022/01/12 06:46:13;;;;;;;14.87;8.70;;;;;;;-0.21;100.00;101139.19;5114832;28;20681;-84
2022/01/12 06:48:44;;;;;;;15.70;9.20;;;;;;;-0.39;100.00;101140.72;5111297;28;20646;-84
2022/01/12 06:51:13;;;;;;;13.00;8.60;;;;;;;-0.18;100.00;101140.13;5111443;28;20646;-84
2022/01/12 06:53:41;;;;;;;16.33;8.67;;;;;;;-0.13;100.00;101151.44;5104931;28;20195;-84
2022/01/12 06:56:09;;;;;;;16.77;9.27;;;;;;;-0.05;100.00;101164.56;5104351;28;20202;-83
2022/01/12 06:58:37;;;;;;;13.57;8.60;;;;;;;0.03;100.00;101168.13;5111303;28;20203;-84
2022/01/12 07:01:06;;;;;;;12.17;8.77;;;;;;;0.11;100.00;101169.09;5105111;28;20195;-84
2022/01/12 07:03:35;;;;;;;16.57;9.30;;;;;;;0.22;100.00;101170.09;5114476;28;20210;-83
2022/01/12 07:06:05;;;;;;;13.83;8.70;;;;;;;0.19;100.00;101183.09;5105545;28;20213;-84
2022/01/12 07:08:36;;;;;;;15.57;9.70;;;;;;;0.15;100.00;101177.81;5111104;28;20274;-84
2022/01/12 07:11:05;;;;;;;14.17;8.80;;;;;;;0.18;100.00;101177.84;5107282;28;20186;-84
2022/01/12 07:13:34;;;;;;;13.30;8.70;;;;;;;0.13;100.00;101180.41;5111542;28;20283;-84
2022/01/12 07:16:03;;;;;;;13.80;9.47;;;;;;;0.19;100.00;101192.63;5104989;28;20198;-84
2022/01/12 07:18:31;;;;;;;15.57;9.67;;;;;;;0.13;100.00;101196.03;5108773;28;20204;-84
2022/01/12 07:21:00;;;;;;;12.73;8.67;;;;;;;0.15;100.00;101194.31;5112968;28;20187;-84
2022/01/12 07:23:30;;;;;;;16.90;9.73;;;;;;;0.16;100.00;101195.19;5109475;28;20195;-84
2022/01/12 07:25:59;;;;;;;13.83;9.20;;;;;;;0.32;100.00;101202.34;5103126;28;20195;-84
2022/01/12 07:28:27;;;;;;;15.13;9.43;;;;;;;0.32;100.00;101202.34;5104315;28;20199;-84
2022/01/12 07:30:56;;;;;;;14.73;9.60;;;;;;;0.08;100.00;101191.63;5109755;28;20215;-85
2022/01/12 07:33:25;;;;;;;18.17;10.20;;;;;;;0.08;100.00;101191.63;5108426;28;20277;-84
2022/01/12 07:35:54;;;;;;;15.83;9.80;;;;;;;0.20;100.00;101194.38;5109722;28;20191;-84
2022/01/12 07:38:24;;;;;;;13.60;9.03;;;;;;;0.22;100.00;101193.53;5105649;28;20256;-84
2022/01/12 07:40:53;;;;;;;16.77;9.70;;;;;;;0.09;100.00;101206.38;5110838;28;20191;-83
2022/01/12 07:43:22;;;;;;;15.57;9.80;;;;;;;0.05;100.00;101218.53;5113854;28;20203;-84
2022/01/12 07:45:50;;;;;;;14.47;9.40;;;;;;;-0.01;100.00;101215.81;5105994;28;20260;-84
2022/01/12 07:48:19;;;;;;;15.87;10.20;;;;;;;0.13;100.00;101224.69;5105857;28;20222;-84
2022/01/12 07:50:48;;;;;;;17.07;10.47;;;;;;;0.09;100.00;101220.28;5111317;28;20223;-84
2022/01/12 07:53:17;;;;;;;13.93;9.77;;;;;;;0.09;100.00;101220.28;5102815;28;20203;-83
2022/01/12 07:55:45;;;;;;;16.20;10.07;;;;;;;0.25;100.00;101237.00;5109495;28;20587;-84
2022/01/12 07:58:15;;;;;;;17.30;9.73;;;;;;;0.37;100.00;101226.69;5103257;28;20195;-84
2022/01/12 08:00:43;;;;;;;13.60;8.90;;;;;;;0.49;100.00;101225.97;5109946;28;20208;-84
2022/01/12 08:03:14;;;;;;;15.40;10.10;;;;;;;0.53;100.00;101220.78;5110504;28;20294;-83
2022/01/12 08:05:45;;;;;;;14.40;10.27;;;;;;;0.49;100.00;101221.63;5105957;28;20688;-83
2022/01/12 08:08:15;;;;;;;15.63;10.70;;;;;;;0.44;100.00;101220.69;5108197;28;20264;-84
2022/01/12 08:10:46;;;;;;;14.90;10.17;;;;;;;0.42;100.00;101225.03;5109271;28;20268;-84
2022/01/12 08:13:15;;;;;;;17.37;10.47;;;;;;;0.46;100.00;101226.78;5110415;28;20252;-84
2022/01/12 08:15:44;;;;;;;13.53;9.23;;;;;;;0.46;100.00;101226.78;5111219;28;20207;-84
2022/01/12 08:18:12;;;;;;;19.60;10.40;;;;;;;0.36;100.00;101216.25;5109173;28;20198;-84
2022/01/12 08:20:42;;;;;;;16.47;10.33;;;;;;;0.31;100.00;101213.63;5058775;28;20221;-84
2022/01/12 08:23:10;;;;;;;15.63;10.20;;;;;;;0.42;100.00;101209.38;5109465;28;20199;-85
2022/01/12 08:25:40;;;;;;;24.00;14.67;;;;;;;0.60;100.00;101210.44;5110250;28;20673;-84
2022/01/12 08:28:09;;;;;;;17.40;11.50;;;;;;;0.69;100.00;101224.44;5112504;28;20215;-85
2022/01/12 08:30:40;;;;;;;15.50;10.57;;;;;;;0.73;100.00;101220.97;5130405;28;20218;-84
2022/01/12 08:33:10;;;;;;;15.57;10.17;;;;;;;0.79;100.00;101238.44;5134347;28;20184;-82
2022/01/12 08:35:40;;;;;;;17.30;9.83;;;;;;;0.75;100.00;101234.03;5137111;28;20251;-81
2022/01/12 08:38:08;;;;;;;15.60;10.00;;;;;;;0.77;100.00;101230.59;5130221;28;20229;-80
2022/01/12 08:40:39;;;;;;;14.17;9.23;;;;;;;0.81;100.00;101227.16;5138264;28;20248;-82
2022/01/12 08:43:10;;;;;;;13.20;9.23;;;;;;;0.76;100.00;101233.16;5125301;28;20247;-84
2022/01/12 08:45:40;;;;;;;13.73;9.27;;;;;;;0.81;100.00;101236.72;5112069;28;20195;-84
2022/01/12 08:48:08;;;;;;;15.67;9.27;;;;;;;0.75;100.00;101237.50;5115610;28;20801;-85
2022/01/12 08:50:37;;;;;;;13.20;8.83;;;;;;;0.78;100.00;101239.31;5114280;28;20661;-84
2022/01/12 08:53:06;;;;;;;14.93;9.63;;;;;;;0.84;100.00;101250.63;5125379;28;20191;-84
2022/01/12 08:55:37;;;;;;;15.23;9.57;;;;;;;0.90;100.00;101257.66;5110620;28;20269;-84
2022/01/12 08:58:07;;;;;;;12.73;8.70;;;;;;;0.95;100.00;101248.13;5113937;28;20208;-85
2022/01/12 09:00:37;;;;;;;15.30;9.00;;;;;;;1.02;100.00;101247.31;5112280;28;20203;-85
2022/01/12 09:03:08;;;;;;;14.33;8.97;;;;;;;0.99;100.00;101265.56;5113601;28;20649;-84
2022/01/12 09:05:37;;;;;;;13.27;9.03;;;;;;;1.14;100.00;101272.66;5114059;28;20226;-84
2022/01/12 09:08:06;;;;;;;15.43;9.60;;;;;;;1.09;100.00;101270.00;5111525;28;20219;-84
2022/01/12 09:10:35;;;;;;;15.07;9.10;;;;;;;1.19;100.00;101278.78;5113146;28;20191;-83
2022/01/12 09:13:04;;;;;;;13.80;9.40;;;;;;;1.19;100.00;101286.63;5105776;28;20206;-84
2022/01/12 09:15:33;;;;;;;13.50;8.70;;;;;;;0.99;100.00;101289.06;5113567;28;20191;-85
2022/01/12 09:18:01;;;;;;;14.67;9.13;;;;;;;0.92;100.00;101296.81;5109799;28;20198;-84
2022/01/12 09:20:32;;;;;;;15.33;9.47;;;;;;;;;;5116282;28;20191;-84
2022/01/12 09:23:00;;;;;;;14.10;9.13;;;;;;;1.15;100.00;101298.75;5111898;28;20201;-84
2022/01/12 09:25:29;;;;;;;14.97;9.63;;;;;;;1.11;100.00;101301.34;5110739;28;20191;-83
2022/01/12 09:28:01;;;;;;;14.73;9.23;;;;;;;1.22;100.00;101311.88;5108671;28;20223;-84
2022/01/12 09:30:31;;;;;;;15.17;9.27;;;;;;;1.17;100.00;101308.34;5110152;28;20234;-84
2022/01/12 09:33:00;;;;;;;14.63;9.50;;;;;;;1.23;100.00;101308.38;5050016;28;20200;-84
2022/01/12 09:35:31;;;;;;;15.47;9.47;;;;;;;1.17;100.00;101306.63;5033308;28;20201;-84
2022/01/12 09:37:59;;;;;;;14.77;9.80;;;;;;;1.34;100.00;101318.06;5032558;28;20201;-84
2022/01/12 09:40:27;;;;;;;15.87;10.37;;;;;;;1.43;100.00;101312.91;5028289;28;20278;-84
2022/01/12 09:42:57;;;;;;;17.60;11.77;;;;;;;1.42;100.00;101312.91;5033332;28;20194;-85
2022/01/12 09:45:27;;;;;;;15.07;10.50;;;;;;;1.51;100.00;101312.97;5027225;28;20237;-84
2022/01/12 09:47:55;;;;;;;14.70;9.47;;;;;;;1.55;100.00;101300.84;5027830;28;20218;-83
2022/01/12 09:50:25;;;;;;;16.07;10.17;;;;;;;1.63;100.00;101309.56;5029800;28;20246;-84
2022/01/12 09:52:55;;;;;;;18.03;11.10;;;;;;;1.80;100.00;101301.84;5075206;28;20194;-83
2022/01/12 09:55:25;;;;;;;16.53;11.00;;;;;;;1.73;100.00;101303.53;5111406;28;20225;-84
2022/01/12 09:57:59;;;;;;;15.70;10.27;;;;;;;1.73;100.00;101306.16;5109102;28;20188;-84
2022/01/12 10:00:28;;;;;;;13.47;9.40;;;;;;;1.89;100.00;101305.41;5112162;28;20187;-84
2022/01/12 10:02:58;;;;;;;13.33;9.57;;;;;;;1.85;100.00;101300.16;5112544;28;20626;-84
2022/01/12 10:05:32;;;;;;;14.20;9.53;;;;;;;1.85;100.00;101300.16;5108467;28;20672;-84
2022/01/12 10:08:17;;;;;;;14.43;10.20;;;;;;;2.09;100.00;101305.50;5108524;28;20276;-83
2022/01/12 10:11:01;;;;;;;14.10;9.27;;;;;;;2.24;100.00;101296.88;5110774;28;20260;-84
2022/01/12 10:13:30;;;;;;;16.70;11.00;;;;;;;2.03;100.00;101302.88;5110691;28;20191;-84
2022/01/12 10:15:58;;;;;;;16.60;10.57;;;;;;;2.24;100.00;101295.13;5114905;28;20191;-84
2022/01/12 10:18:27;;;;;;;16.07;9.97;;;;;;;2.28;100.00;101296.88;5106893;28;20199;-83
2022/01/12 10:20:56;;;;;;;16.07;10.10;;;;;;;2.25;100.00;101288.16;5105344;28;20205;-83
2022/01/12 10:23:26;;;;;;;16.03;10.30;;;;;;;2.28;100.00;101280.31;5103824;28;20195;-84
2022/01/12 10:25:55;;;;;;;14.03;9.70;;;;;;;2.32;100.00;101286.44;5108998;28;20188;-83
2022/01/12 10:28:25;;;;;;;14.17;9.83;;;;;;;2.46;100.00;101282.13;5107517;28;20222;-84
2022/01/12 10:30:56;;;;;;;16.33;9.83;;;;;;;2.66;100.00;101279.59;5109521;28;20222;-84
2022/01/12 10:33:27;;;;;;;13.40;9.20;;;;;;;2.55;100.00;101277.81;5109179;28;20229;-83
2022/01/12 10:35:58;;;;;;;14.40;9.60;;;;;;;2.59;100.00;101284.78;5110837;28;20650;-84
2022/01/12 10:38:28;;;;;;;13.67;9.60;;;;;;;2.78;100.00;101287.44;5111714;28;20187;-83
2022/01/12 10:40:59;;;;;;;16.27;12.17;;;;;;;2.29;100.00;101279.47;5111847;28;20252;-83
2022/01/12 10:43:30;;;;;;;12.20;9.03;;;;;;;2.29;100.00;101279.47;5111984;28;20199;-84
2022/01/12 10:45:59;;;;;;;13.20;9.07;;;;;;;2.44;100.00;101289.13;5114550;28;20190;-83
2022/01/12 10:48:38;;;;;;;14.93;9.37;;;;;;;2.68;100.00;101285.69;5114687;28;20260;-83
2022/01/12 10:51:07;;;;;;;15.53;9.63;;;;;;;2.86;100.00;101291.84;5115300;28;20758;-83
2022/01/12 10:53:38;;;;;;;14.27;9.03;;;;;;;2.74;100.00;101283.97;5111627;28;20642;-83
2022/01/12 10:56:08;;;;;;;11.27;8.73;;;;;;;2.95;100.00;101282.25;5114311;28;20197;-82
2022/01/12 10:58:40;;;;;;;12.37;8.37;;;;;;;3.15;100.00;101286.63;5114133;28;20198;-83
2022/01/12 11:01:09;;;;;;;11.10;8.60;;;;;;;3.25;100.00;101279.66;5107522;28;20206;-83
2022/01/12 11:03:38;;;;;;;11.50;9.00;;;;;;;3.13;100.00;101269.19;5105428;28;20183;-83
2022/01/12 11:06:08;;;;;;;11.00;8.37;;;;;;;3.26;100.00;101272.66;5107907;28;20702;-82
2022/01/12 11:08:39;;;;;;;13.33;9.33;;;;;;;3.43;100.00;101269.16;5110128;28;20222;-83
2022/01/12 11:11:08;;;;;;;13.77;8.97;;;;;;;3.51;100.00;101261.31;5105683;28;20199;-83
2022/01/12 11:13:37;;;;;;;13.17;9.10;;;;;;;3.54;100.00;101269.16;5114697;28;20194;-82
2022/01/12 11:16:06;;;;;;;11.77;9.47;;;;;;;2.83;100.00;101259.56;5110096;28;20191;-82
2022/01/12 11:18:36;;;;;;;12.70;9.13;;;;;;;3.26;100.00;101272.66;5062544;28;20202;-82
2022/01/12 11:21:09;;;;;;;13.90;9.80;;;;;;;3.54;100.00;101260.44;5117805;28;20195;-82
2022/01/12 11:23:42;;;;;;;12.40;9.17;;;;;;;3.69;100.00;101263.03;5115305;28;20187;-83
2022/01/12 11:26:16;;;;;;;12.43;9.23;;;;;;;3.71;100.00;101262.16;5105549;28;20203;-82
2022/01/12 11:28:46;;;;;;;11.93;8.10;;;;;;;3.55;100.00;101242.06;5109447;28;20220;-83
2022/01/12 11:31:18;;;;;;;9.57;7.33;;;;;;;3.87;100.00;101244.66;5113879;28;20215;-83
2022/01/12 11:33:46;;;;;;;8.80;7.20;;;;;;;3.83;100.00;101242.88;5112085;28;20203;-83
2022/01/12 11:36:20;;;;;;;11.53;7.53;;;;;;;3.87;100.00;101228.91;5110057;28;20198;-83
2022/01/12 11:38:59;;;;;;;10.30;7.50;;;;;;;3.52;100.00;101238.59;5106783;28;20195;-83
2022/01/12 11:41:29;;;;;;;10.63;7.40;;;;;;;3.27;100.00;101243.84;5112065;28;20207;-83
2022/01/12 11:44:05;;;;;;;8.47;6.30;;;;;;;3.18;100.00;101241.25;5091472;28;20192;-83
2022/01/12 11:46:45;;;;;;;9.20;7.00;;;;;;;3.40;100.00;101237.75;5087846;28;20287;-83
2022/01/12 11:49:27;;;;;;;9.63;7.10;;;;;;;3.40;100.00;101237.75;5096562;28;20215;-83
2022/01/12 11:51:58;;;;;;;9.20;7.07;;;;;;;3.82;100.00;101228.03;5093473;28;20199;-83
2022/01/12 11:54:35;;;;;;;9.63;7.23;;;;;;;4.02;100.00;101227.97;5091409;28;20187;-83
2022/01/12 11:57:05;;;;;;;11.13;7.50;;;;;;;4.24;100.00;101216.50;5084205;28;20207;-83
2022/01/12 11:59:51;;;;;;;9.73;6.83;;;;;;;4.30;100.00;101220.84;5091210;28;20198;-83
2022/01/12 12:02:21;;;;;;;11.20;7.07;;;;;;;4.20;100.00;101213.91;5096439;28;20202;-83
2022/01/12 12:04:55;;;;;;;9.90;7.30;;;;;;;3.95;100.00;101214.00;5117829;28;20304;-83
2022/01/12 12:07:25;;;;;;;8.40;6.70;;;;;;;4.15;100.00;101216.56;5116592;28;20195;-83
2022/01/12 12:09:58;;;;;;;10.70;7.83;;;;;;;4.24;100.00;101213.00;5114283;28;20301;-82
2022/01/12 12:12:30;;;;;;;10.10;8.03;;;;;;;3.70;100.00;101226.34;5114202;28;20199;-83
2022/01/12 12:15:01;;;;;;;10.13;7.90;;;;;;;4.01;100.00;101218.38;5114339;28;20197;-83
2022/01/12 12:17:31;;;;;;;10.50;8.07;;;;;;;4.17;100.00;101224.44;5111614;28;20191;-83
2022/01/12 12:20:01;;;;;;;10.47;7.37;;;;;;;4.23;100.00;101216.50;5117224;28;20594;-83
2022/01/12 12:22:31;;;;;;;9.90;6.63;;;;;;;4.22;100.00;101215.63;5113452;28;20191;-83
2022/01/12 12:25:07;;;;;;;9.00;6.43;;;;;;;4.38;100.00;101221.69;5111028;28;20205;-82
2022/01/12 12:27:38;;;;;;;8.47;6.60;;;;;;;4.39;100.00;101217.31;5113114;28;20197;-83
2022/01/12 12:30:08;;;;;;;8.47;6.33;;;;;;;4.29;100.00;101222.59;5111539;28;20693;-83
2022/01/12 12:32:38;;;;;;;8.17;6.30;;;;;;;4.25;100.00;101220.88;5117279;28;20311;-83